createdAt,value
2022-08-28T00:03:13.562Z,1.77
2022-08-28T00:08:18.339Z,1.77
2022-08-28T00:13:23.350Z,1.20
2022-08-28T00:18:26.484Z,1.48
2022-08-28T00:23:38.782Z,1.60
2022-08-28T00:28:47.305Z,1.80
2022-08-28T00:33:50.905Z,1.30
2022-08-28T00:38:53.614Z,1.60
2022-08-28T00:44:11.329Z,1.48
2022-08-28T00:49:15.083Z,1.67
2022-08-28T00:54:19.198Z,1.95
2022-08-28T00:59:26.915Z,2.20
2022-08-28T01:04:32.406Z,1.90
2022-08-28T01:09:36.633Z,2.00
2022-08-28T01:19:45.299Z,1.67
2022-08-28T01:24:50.706Z,2.00
2022-08-28T01:29:53.761Z,1.20
2022-08-28T01:34:56.781Z,2.20
2022-08-28T01:40:01.518Z,1.48
2022-08-28T01:45:04.448Z,2.47
2022-08-28T01:50:08.243Z,2.50
2022-08-28T01:55:12.732Z,2.20
2022-08-28T02:00:16.194Z,2.53
2022-08-28T02:05:19.465Z,2.35
2022-08-28T02:10:25.368Z,2.30
2022-08-28T02:15:28.787Z,2.30
2022-08-28T02:20:32.151Z,2.58
2022-08-28T02:25:36.741Z,2.50
2022-08-28T02:30:40.181Z,2.83
2022-08-28T02:40:47.072Z,2.75
2022-08-28T02:45:49.811Z,2.90
2022-08-28T02:50:52.529Z,2.35
2022-08-28T02:55:57.233Z,2.83
2022-08-28T03:01:00.158Z,3.00
2022-08-28T03:06:03.637Z,2.70
2022-08-28T03:11:07.644Z,3.33
2022-08-28T03:16:10.313Z,3.22
2022-08-28T03:21:13.186Z,3.37
2022-08-28T03:26:18.672Z,3.53
2022-08-28T03:31:23.594Z,3.60
2022-08-28T03:36:27.805Z,3.92
2022-08-28T03:41:32.272Z,3.35
2022-08-28T03:46:34.906Z,3.50
2022-08-28T03:51:37.529Z,3.97
2022-08-28T03:56:42.363Z,3.60
2022-08-28T04:01:45.198Z,3.40
2022-08-28T04:06:47.933Z,3.50
2022-08-28T04:11:52.953Z,3.97
2022-08-28T04:16:58.595Z,3.78
2022-08-28T04:22:04.212Z,4.10
2022-08-28T04:27:08.471Z,3.92
2022-08-28T04:32:11.329Z,3.92
2022-08-28T04:37:14.064Z,4.57
2022-08-28T04:42:18.172Z,5.00
2022-08-28T04:47:23.704Z,5.10
2022-08-28T04:52:26.629Z,5.35
2022-08-28T04:57:35.699Z,4.75
2022-08-28T05:02:39.695Z,4.20
2022-08-28T05:07:42.424Z,4.40
2022-08-28T05:12:49.246Z,4.18
2022-08-28T05:17:51.906Z,4.22
2022-08-28T05:22:54.671Z,4.63
2022-08-28T05:27:59.121Z,4.43
2022-08-28T05:33:02.086Z,3.92
2022-08-28T05:38:05.205Z,3.75
2022-08-28T05:43:09.277Z,4.03
2022-08-28T05:48:14.254Z,3.47
2022-08-28T05:53:18.261Z,3.60
2022-08-28T05:58:32.134Z,4.15
2022-08-28T06:03:36.231Z,8.38
2022-08-28T06:08:39.545Z,4.10
2022-08-28T06:14:03.944Z,4.63
2022-08-28T06:19:07.902Z,4.30
2022-08-28T06:24:12.203Z,5.72
2022-08-28T06:29:18.605Z,6.78
2022-08-28T06:34:24.493Z,7.78
2022-08-28T06:39:27.817Z,7.60
2022-08-28T06:44:32.497Z,7.28
2022-08-28T06:49:35.845Z,9.00
2022-08-28T06:54:38.661Z,9.00
2022-08-28T06:59:44.729Z,9.43
2022-08-28T07:04:47.427Z,10.32
2022-08-28T07:09:50.402Z,11.13
2022-08-28T07:14:54.382Z,9.10
2022-08-28T07:19:57.026Z,9.30
2022-08-28T07:25:00.035Z,9.93
2022-08-28T07:30:04.439Z,10.00
2022-08-28T07:35:07.808Z,9.07
2022-08-28T07:40:15.158Z,9.98
2022-08-28T07:45:19.387Z,10.35
2022-08-28T07:50:22.239Z,10.88
2022-08-28T07:55:27.858Z,9.38
2022-08-28T08:00:32.611Z,9.38
2022-08-28T08:05:35.469Z,9.75
2022-08-28T08:10:38.236Z,10.07
2022-08-28T08:15:43.606Z,9.57
2022-08-28T08:20:47.237Z,9.63
2022-08-28T08:25:57.005Z,8.80
2022-08-28T08:31:08.894Z,9.15
2022-08-28T08:36:12.765Z,8.73
2022-08-28T08:41:18.493Z,9.35
2022-08-28T08:46:27.377Z,9.27
2022-08-28T08:51:38.341Z,9.68
2022-08-28T08:56:42.910Z,9.40
2022-08-28T09:01:53.309Z,9.55
2022-08-28T09:06:59.499Z,10.55
2022-08-28T09:12:03.639Z,10.40
2022-08-28T09:17:08.181Z,9.65
2022-08-28T09:22:10.876Z,16.52
2022-08-28T09:27:23.346Z,10.52
2022-08-28T09:32:32.151Z,10.63
2022-08-28T09:37:36.624Z,11.18
2022-08-28T09:48:03.584Z,11.55
2022-08-28T09:53:16.940Z,11.88
2022-08-28T09:58:19.568Z,12.88
2022-08-28T10:03:27.699Z,13.30
2022-08-28T10:08:37.211Z,13.38
2022-08-28T10:13:45.025Z,13.40
2022-08-28T10:18:52.058Z,11.85
2022-08-28T10:24:05.386Z,14.52
2022-08-28T10:29:15.148Z,14.07
2022-08-28T10:34:28.500Z,13.80
2022-08-28T10:39:38.880Z,15.07
2022-08-28T10:44:45.272Z,15.50
2022-08-28T10:49:51.461Z,15.02
2022-08-28T10:54:55.978Z,12.43
2022-08-28T11:00:00.226Z,14.18
2022-08-28T11:05:05.347Z,14.18
2022-08-28T11:10:19.891Z,14.63
2022-08-28T11:15:42.294Z,13.52
2022-08-28T11:20:57.832Z,13.50
2022-08-28T11:26:03.537Z,14.40
2022-08-28T11:31:29.381Z,14.52
2022-08-28T11:36:50.855Z,13.02
2022-08-28T11:42:13.684Z,14.05
2022-08-28T11:47:35.050Z,12.65
2022-08-28T11:52:45.947Z,13.15
2022-08-28T11:57:55.297Z,14.98
2022-08-28T12:08:05.865Z,13.60
2022-08-28T12:13:09.629Z,12.77
2022-08-28T12:18:17.319Z,12.85
2022-08-28T12:23:37.141Z,12.48
2022-08-28T12:28:44.998Z,12.45
2022-08-28T12:33:50.912Z,12.23
2022-08-28T12:38:56.025Z,11.98
2022-08-28T12:43:59.373Z,11.25
2022-08-28T12:49:03.900Z,11.05
2022-08-28T12:54:10.383Z,9.85
2022-08-28T12:59:27.492Z,10.82
2022-08-28T13:04:34.333Z,9.93
2022-08-28T13:09:38.816Z,9.77
2022-08-28T13:14:43.526Z,9.95
2022-08-28T13:19:46.236Z,10.48
2022-08-28T13:29:57.133Z,10.47
2022-08-28T13:35:13.079Z,10.90
2022-08-28T13:40:44.478Z,11.60
2022-08-28T13:45:44.048Z,11.45
2022-08-28T13:50:48.730Z,10.68
2022-08-28T13:55:52.066Z,12.15
2022-08-28T14:05:58.483Z,10.67
2022-08-28T14:11:01.327Z,11.57
2022-08-28T14:16:05.937Z,11.50
2022-08-28T14:21:10.109Z,10.45
2022-08-28T14:26:12.661Z,10.30
2022-08-28T14:36:21.386Z,9.98
2022-08-28T14:41:26.329Z,11.10
2022-08-28T14:46:30.507Z,10.98
2022-08-28T14:51:36.316Z,11.05
2022-08-28T14:56:39.693Z,11.32
2022-08-28T15:01:42.544Z,11.23
2022-08-28T15:06:46.763Z,7.70
2022-08-28T15:11:49.294Z,8.57
2022-08-28T15:16:53.451Z,6.50
2022-08-28T15:21:58.477Z,6.60
2022-08-28T15:27:01.499Z,6.80
2022-08-28T15:32:04.991Z,6.35
2022-08-28T15:37:09.129Z,5.93
2022-08-28T15:42:16.240Z,6.28
2022-08-28T15:47:19.120Z,8.10
2022-08-28T15:52:26.291Z,7.97
2022-08-28T15:57:29.240Z,7.72
2022-08-28T16:02:31.947Z,8.43
2022-08-28T16:12:40.109Z,7.72
2022-08-28T16:17:44.429Z,8.65
2022-08-28T16:22:47.381Z,9.52
2022-08-28T16:32:55.037Z,8.40
2022-08-28T16:37:58.295Z,10.50
2022-08-28T16:43:01.038Z,8.90
2022-08-28T16:48:06.300Z,9.50
2022-08-28T16:53:09.895Z,10.75
2022-08-28T17:03:27.172Z,6.75
2022-08-28T17:08:39.087Z,10.73
2022-08-28T17:13:42.202Z,6.68
2022-08-28T17:23:52.838Z,8.88
2022-08-28T17:28:55.663Z,8.40
2022-08-28T17:33:59.428Z,7.30
2022-08-28T17:39:04.982Z,11.20
2022-08-28T17:44:07.948Z,14.25
2022-08-28T17:49:10.532Z,11.80
2022-08-28T17:54:16.951Z,9.98
2022-08-28T17:59:20.965Z,10.25
2022-08-28T18:04:24.717Z,10.02
2022-08-28T18:09:29.197Z,12.07
2022-08-28T18:14:31.923Z,10.00
2022-08-28T18:19:35.765Z,9.88
2022-08-28T18:24:40.505Z,11.18
2022-08-28T18:29:43.203Z,12.00
2022-08-28T18:34:45.865Z,13.43
2022-08-28T18:39:52.049Z,12.03
2022-08-28T18:44:57.208Z,11.68
2022-08-28T18:50:00.217Z,13.05
2022-08-28T18:55:10.766Z,15.45
2022-08-28T19:00:15.724Z,12.27
2022-08-28T19:05:18.608Z,17.35
2022-08-28T19:10:33.401Z,14.40
2022-08-28T19:15:38.402Z,13.50
2022-08-28T19:20:41.243Z,11.45
2022-08-28T19:25:45.635Z,8.95
2022-08-28T19:30:48.850Z,13.80
2022-08-28T19:35:51.986Z,12.48
2022-08-28T19:40:56.466Z,13.35
2022-08-28T19:46:00.428Z,11.02
2022-08-28T19:51:04.756Z,11.88
2022-08-28T19:56:17.085Z,11.90
2022-08-28T20:01:20.717Z,14.77
2022-08-28T20:06:23.404Z,11.45
2022-08-28T20:11:30.431Z,12.50
2022-08-28T20:16:35.316Z,14.60
2022-08-28T20:21:39.885Z,14.82
2022-08-28T20:26:43.943Z,16.20
2022-08-28T20:31:48.300Z,12.20
2022-08-28T20:36:51.486Z,12.20
2022-08-28T20:41:55.911Z,12.48
2022-08-28T20:46:58.804Z,10.80
2022-08-28T20:52:01.897Z,12.18
2022-08-28T20:57:07.449Z,11.47
2022-08-28T21:02:11.498Z,16.73
2022-08-28T21:07:14.764Z,11.57
2022-08-28T21:12:19.242Z,12.32
2022-08-28T21:17:29.012Z,12.43
2022-08-28T21:22:36.070Z,12.10
2022-08-28T21:27:40.425Z,13.82
2022-08-28T21:32:43.231Z,14.40
2022-08-28T21:37:46.003Z,15.10
2022-08-28T21:42:50.159Z,13.20
2022-08-28T21:47:52.800Z,14.05
2022-08-28T21:52:55.445Z,13.87
2022-08-28T21:57:59.455Z,14.50
2022-08-28T22:03:02.468Z,14.13
2022-08-28T22:08:05.157Z,15.35
2022-08-28T22:13:10.832Z,13.77
2022-08-28T22:18:14.499Z,13.23
2022-08-28T22:23:17.837Z,13.07
2022-08-28T22:28:22.439Z,12.95
2022-08-28T22:33:25.117Z,13.93
2022-08-28T22:38:28.086Z,13.23
2022-08-28T22:43:32.560Z,12.82
2022-08-28T22:48:39.610Z,14.10
2022-08-28T22:53:43.732Z,13.83
2022-08-28T22:58:47.798Z,13.70
2022-08-28T23:03:50.559Z,12.77
2022-08-28T23:08:57.656Z,12.90
2022-08-28T23:14:01.687Z,13.95
2022-08-28T23:19:08.638Z,13.15
2022-08-28T23:24:12.640Z,13.23
2022-08-28T23:29:17.873Z,13.63
2022-08-28T23:34:21.491Z,13.05
2022-08-28T23:39:24.935Z,12.93
2022-08-28T23:44:31.943Z,11.73
2022-08-28T23:49:35.360Z,12.73
2022-08-28T23:54:45.207Z,12.13
2022-08-28T23:59:49.898Z,12.88
